Time;durP1;ratioP1;P1;durP2;ratioP2;P2;SDS_P1;SDS_P2;PMS_P1;PMS_P2;Temp;Humidity;BMP_temperature;BMP_pressure;BME280_temperature;BME280_humidity;BME280_pressure;Samples;Min_cycle;Max_cycle;Signal;HPM_P1;HPM_P2
2024/01/23 00:01:35;;;;;;;77.20;72.63;;;;;;;;;;5068859;28;20424;-69
2024/01/23 00:04:02;;;;;;;81.15;76.50;;;;;;;;;;5060776;28;20430;-69
2024/01/23 00:06:33;;;;;;;85.10;80.28;;;;;;;;;;5067929;28;20820;-69
2024/01/23 00:09:00;;;;;;;91.32;86.32;;;;;;;;;;5068276;28;20435;-69
2024/01/23 00:11:33;;;;;;;89.07;83.95;;;;;;;;;;5064445;28;20489;-69
2024/01/23 00:14:03;;;;;;;92.47;87.20;;;;;;;;;;5072900;28;20429;-69
2024/01/23 00:16:30;;;;;;;91.88;86.70;;;;;;;;;;5077029;28;20461;-69
2024/01/23 00:18:58;;;;;;;96.25;90.88;;;;;;;;;;5074038;28;20494;-69
2024/01/23 00:21:25;;;;;;;98.07;92.50;;;;;;;;;;5072112;28;20434;-69
2024/01/23 00:23:52;;;;;;;83.72;79.00;;;;;;;;;;5060556;28;20511;-68
2024/01/23 00:26:19;;;;;;;104.75;99.00;;;;;;;;;;5067278;28;20446;-69
2024/01/23 00:28:47;;;;;;;86.20;81.45;;;;;;;;;;5066328;28;20429;-69
2024/01/23 00:31:14;;;;;;;89.47;84.43;;;;;;;;;;5065101;28;20429;-68
2024/01/23 00:33:41;;;;;;;92.78;87.60;;;;;;;;;;5067403;28;20946;-68
2024/01/23 00:36:08;;;;;;;85.10;80.13;;;;;;;;;;5067554;28;20505;-68
2024/01/23 00:38:35;;;;;;;83.77;79.07;;;;;;;;;;5066301;28;20429;-68
2024/01/23 00:41:03;;;;;;;100.43;94.78;;;;;;;;;;5066033;28;20462;-68
2024/01/23 00:43:30;;;;;;;98.15;93.03;;;;;;;;;;5076410;28;20892;-68
2024/01/23 00:45:57;;;;;;;97.80;92.60;;;;;;;;;;5063776;28;20427;-68
2024/01/23 00:48:27;;;;;;;93.80;88.78;;;;;;;;;;5060714;28;20831;-69
2024/01/23 00:50:56;;;;;;;88.43;83.60;;;;;;;;;;5066972;28;20427;-68
2024/01/23 00:53:26;;;;;;;91.60;86.65;;;;;;;;;;5068285;28;20427;-69
2024/01/23 00:55:54;;;;;;;99.18;93.78;;;;;;;;;;5064046;28;20789;-68
2024/01/23 00:58:23;;;;;;;95.65;90.53;;;;;;;;;;5065181;28;21159;-68
2024/01/23 01:00:50;;;;;;;97.55;92.43;;;;;;;;;;5059998;28;20454;-69
2024/01/23 01:03:17;;;;;;;98.80;93.60;;;;;;;;;;5063309;28;20431;-68
2024/01/23 01:05:45;;;;;;;105.20;98.60;;;;;;;;;;5053005;28;21894;-69
2024/01/23 01:08:13;;;;;;;95.40;90.18;;;;;;;;;;5052626;28;20427;-68
2024/01/23 01:10:40;;;;;;;101.45;96.05;;;;;;;;;;5050388;28;20446;-69
2024/01/23 01:13:09;;;;;;;105.35;99.70;;;;;;;;;;5055082;28;20439;-69
2024/01/23 01:15:38;;;;;;;104.40;98.28;;;;;;;;;;5051254;28;20433;-69
2024/01/23 01:18:07;;;;;;;101.20;95.70;;;;;;;;;;5047144;28;20434;-69
2024/01/23 01:20:35;;;;;;;109.35;103.53;;;;;;;;;;5055366;28;20438;-68
2024/01/23 01:23:02;;;;;;;100.60;94.82;;;;;;;;;;5073829;28;20461;-68
2024/01/23 01:25:29;;;;;;;98.88;93.60;;;;;;;;;;5052856;28;20450;-69
2024/01/23 01:27:59;;;;;;;107.53;101.75;;;;;;;;;;5054414;28;21182;-68
2024/01/23 01:30:30;;;;;;;100.28;94.93;;;;;;;;;;5059667;28;20457;-68
2024/01/23 01:32:57;;;;;;;107.68;102.13;;;;;;;;;;5065059;28;20435;-68
2024/01/23 01:35:25;;;;;;;105.15;99.22;;;;;;;;;;5052028;28;20512;-68
2024/01/23 01:37:52;;;;;;;98.65;93.50;;;;;;;;;;5056161;28;20435;-68
2024/01/23 01:40:19;;;;;;;115.72;109.72;;;;;;;;;;5050543;28;21207;-69
2024/01/23 01:42:46;;;;;;;125.03;118.55;;;;;;;;;;5055816;28;20851;-68
2024/01/23 01:45:13;;;;;;;118.47;112.28;;;;;;;;;;5048827;28;20451;-68
2024/01/23 01:47:41;;;;;;;127.87;121.13;;;;;;;;;;5043313;28;21009;-68
2024/01/23 01:50:09;;;;;;;115.57;109.13;;;;;;;;;;5062263;28;20443;-69
2024/01/23 01:52:41;;;;;;;119.72;113.38;;;;;;;;;;5062868;28;20926;-68
2024/01/23 01:55:09;;;;;;;106.32;100.70;;;;;;;;;;5063230;28;20431;-69
2024/01/23 01:57:42;;;;;;;110.50;104.63;;;;;;;;;;5065805;28;20435;-68
2024/01/23 02:00:12;;;;;;;126.65;120.13;;;;;;;;;;5060602;28;20435;-69
2024/01/23 02:02:41;;;;;;;119.60;113.03;;;;;;;;;;5057486;28;20439;-69
2024/01/23 02:05:09;;;;;;;130.40;123.72;;;;;;;;;;5058233;28;20524;-68
2024/01/23 02:07:38;;;;;;;135.55;128.73;;;;;;;;;;5065119;28;20963;-69
2024/01/23 02:10:06;;;;;;;148.05;140.63;;;;;;;;;;5061099;28;20515;-69
2024/01/23 02:12:33;;;;;;;107.97;102.20;;;;;;;;;;5061661;28;20419;-69
2024/01/23 02:15:00;;;;;;;106.28;99.68;;;;;;;;;;5064344;28;20439;-69
2024/01/23 02:17:28;;;;;;;111.82;105.97;;;;;;;;;;5066364;28;20806;-68
2024/01/23 02:19:55;;;;;;;115.85;109.78;;;;;;;;;;5066160;28;20508;-68
2024/01/23 02:22:22;;;;;;;120.45;114.25;;;;;;;;;;5066691;28;20515;-68
2024/01/23 02:24:49;;;;;;;130.85;124.25;;;;;;;;;;5063782;28;20435;-68
2024/01/23 02:27:17;;;;;;;117.22;111.25;;;;;;;;;;5062471;28;20834;-69
2024/01/23 02:29:46;;;;;;;93.60;88.68;;;;;;;;;;5063077;28;20427;-68
2024/01/23 02:32:14;;;;;;;114.78;108.22;;;;;;;;;;5063937;28;20428;-68
2024/01/23 02:34:41;;;;;;;125.88;119.43;;;;;;;;;;5063047;28;20439;-68
2024/01/23 02:37:14;;;;;;;127.00;120.63;;;;;;;;;;5065957;28;20522;-69
2024/01/23 02:39:41;;;;;;;132.77;126.10;;;;;;;;;;5061364;28;20436;-69
2024/01/23 02:42:10;;;;;;;120.88;114.72;;;;;;;;;;5064055;28;20977;-68
2024/01/23 02:44:37;;;;;;;121.28;114.97;;;;;;;;;;5061007;28;20472;-68
2024/01/23 02:47:05;;;;;;;127.10;120.43;;;;;;;;;;5067763;28;20434;-68
2024/01/23 02:49:35;;;;;;;125.67;119.07;;;;;;;;;;5064752;28;20431;-68
2024/01/23 02:52:03;;;;;;;112.82;106.88;;;;;;;;;;5069304;28;20497;-69
2024/01/23 02:54:32;;;;;;;127.82;121.35;;;;;;;;;;5069220;28;20451;-69
2024/01/23 02:57:02;;;;;;;92.32;87.47;;;;;;;;;;5077653;28;20666;-68
2024/01/23 02:59:29;;;;;;;107.15;101.18;;;;;;;;;;5067338;28;20432;-68
2024/01/23 03:01:56;;;;;;;84.63;79.93;;;;;;;;;;5072770;28;20467;-68
2024/01/23 03:04:23;;;;;;;116.95;110.47;;;;;;;;;;5076120;28;20429;-68
2024/01/23 03:06:51;;;;;;;106.60;101.10;;;;;;;;;;5072958;28;20430;-68
2024/01/23 03:09:18;;;;;;;114.50;108.28;;;;;;;;;;5069044;28;20425;-68
2024/01/23 03:11:45;;;;;;;120.25;114.10;;;;;;;;;;5063093;28;20489;-68
2024/01/23 03:14:12;;;;;;;98.30;93.20;;;;;;;;;;5068454;28;20459;-68
2024/01/23 03:16:39;;;;;;;112.60;106.80;;;;;;;;;;5064183;28;20468;-68
2024/01/23 03:19:06;;;;;;;114.03;108.03;;;;;;;;;;5070625;28;20524;-68
2024/01/23 03:21:34;;;;;;;111.47;105.78;;;;;;;;;;5067838;28;20427;-69
2024/01/23 03:24:01;;;;;;;111.10;103.60;;;;;;;;;;5069197;28;20428;-68
2024/01/23 03:26:28;;;;;;;83.93;79.47;;;;;;;;;;5067015;28;20470;-68
2024/01/23 03:28:55;;;;;;;101.47;95.95;;;;;;;;;;5069242;28;20431;-68
2024/01/23 03:31:23;;;;;;;81.35;77.00;;;;;;;;;;5073388;28;20435;-68
2024/01/23 03:33:50;;;;;;;60.35;57.03;;;;;;;;;;5054784;28;20842;-67
2024/01/23 03:36:18;;;;;;;73.80;69.85;;;;;;;;;;5063538;28;20424;-69
2024/01/23 03:38:45;;;;;;;99.75;94.55;;;;;;;;;;5060729;28;21484;-68
2024/01/23 03:41:12;;;;;;;86.07;81.57;;;;;;;;;;5068787;28;20512;-68
2024/01/23 03:43:42;;;;;;;80.87;76.57;;;;;;;;;;5062930;28;20942;-68
2024/01/23 03:46:09;;;;;;;84.78;80.30;;;;;;;;;;5067219;28;20929;-68
2024/01/23 03:48:36;;;;;;;98.72;93.65;;;;;;;;;;5066474;28;20456;-68
2024/01/23 03:51:04;;;;;;;109.13;103.53;;;;;;;;;;5068936;28;20918;-68
2024/01/23 03:53:34;;;;;;;111.45;105.72;;;;;;;;;;5068881;28;20497;-68
2024/01/23 03:56:07;;;;;;;116.30;110.35;;;;;;;;;;5064694;28;20481;-68
2024/01/23 03:58:34;;;;;;;112.35;106.57;;;;;;;;;;5074229;28;20484;-68
2024/01/23 04:01:04;;;;;;;107.63;101.65;;;;;;;;;;5061203;28;20951;-68
2024/01/23 04:03:31;;;;;;;88.88;84.25;;;;;;;;;;5069974;28;20866;-68
2024/01/23 04:06:02;;;;;;;106.35;100.90;;;;;;;;;;5060403;28;20443;-68
2024/01/23 04:08:29;;;;;;;118.25;112.05;;;;;;;;;;5061565;28;20466;-68
2024/01/23 04:10:57;;;;;;;114.80;108.93;;;;;;;;;;5066816;28;20514;-68
2024/01/23 04:13:24;;;;;;;115.15;109.25;;;;;;;;;;5067560;28;20424;-69
2024/01/23 04:15:51;;;;;;;117.13;111.07;;;;;;;;;;5068396;28;20435;-68
2024/01/23 04:18:18;;;;;;;91.70;86.75;;;;;;;;;;5064385;28;20428;-68
2024/01/23 04:20:46;;;;;;;100.13;94.93;;;;;;;;;;5062858;28;20455;-67
2024/01/23 04:23:13;;;;;;;82.23;77.87;;;;;;;;;;5066190;28;20453;-68
2024/01/23 04:25:40;;;;;;;86.90;82.28;;;;;;;;;;5059215;28;20437;-68
2024/01/23 04:28:09;;;;;;;93.20;88.15;;;;;;;;;;5066922;28;20427;-68
2024/01/23 04:30:36;;;;;;;109.15;103.55;;;;;;;;;;5068279;28;20431;-68
2024/01/23 04:33:04;;;;;;;93.90;88.85;;;;;;;;;;5065874;28;20434;-68
2024/01/23 04:35:32;;;;;;;96.20;91.10;;;;;;;;;;5071811;28;20428;-68
2024/01/23 04:38:03;;;;;;;97.82;92.68;;;;;;;;;;5069822;28;20423;-68
2024/01/23 04:40:30;;;;;;;97.87;92.73;;;;;;;;;;5058016;28;20437;-68
2024/01/23 04:42:57;;;;;;;91.83;86.90;;;;;;;;;;5058744;28;20917;-68
2024/01/23 04:45:25;;;;;;;101.57;96.33;;;;;;;;;;5065073;28;20431;-69
2024/01/23 04:47:52;;;;;;;100.00;94.70;;;;;;;;;;5065740;28;20427;-69
2024/01/23 04:50:20;;;;;;;99.65;94.43;;;;;;;;;;5065663;28;20428;-69
2024/01/23 04:52:47;;;;;;;102.88;97.32;;;;;;;;;;5068675;28;20429;-68
2024/01/23 04:55:14;;;;;;;93.20;88.18;;;;;;;;;;5068436;28;20486;-69
2024/01/23 04:57:41;;;;;;;93.43;88.45;;;;;;;;;;5094348;28;20904;-69
2024/01/23 05:00:09;;;;;;;86.25;81.63;;;;;;;;;;5068199;28;20435;-68
2024/01/23 05:02:38;;;;;;;104.60;99.13;;;;;;;;;;5069628;28;20427;-69
2024/01/23 05:05:05;;;;;;;98.13;92.97;;;;;;;;;;5064090;28;20506;-69
2024/01/23 05:07:32;;;;;;;95.63;90.53;;;;;;;;;;5062265;28;20427;-69
2024/01/23 05:10:00;;;;;;;105.83;100.43;;;;;;;;;;5062322;28;20922;-68
2024/01/23 05:12:27;;;;;;;103.55;98.22;;;;;;;;;;5069695;28;20427;-69
2024/01/23 05:14:54;;;;;;;114.20;108.00;;;;;;;;;;5065601;28;20423;-69
2024/01/23 05:17:22;;;;;;;97.00;91.87;;;;;;;;;;5067884;28;20427;-69
2024/01/23 05:19:49;;;;;;;126.00;119.43;;;;;;;;;;5065037;28;20431;-69
2024/01/23 05:22:19;;;;;;;123.43;117.22;;;;;;;;;;5068546;28;20506;-69
2024/01/23 05:24:47;;;;;;;114.50;108.63;;;;;;;;;;5067872;28;20428;-68
2024/01/23 05:27:14;;;;;;;112.82;107.07;;;;;;;;;;5065106;28;20419;-69
2024/01/23 05:29:41;;;;;;;110.60;104.97;;;;;;;;;;5066800;28;20506;-69
2024/01/23 05:32:11;;;;;;;100.22;94.95;;;;;;;;;;5071363;28;20465;-69
2024/01/23 05:34:39;;;;;;;110.82;105.10;;;;;;;;;;5074818;28;20433;-69
2024/01/23 05:37:08;;;;;;;77.75;73.35;;;;;;;;;;5068060;28;20484;-67
2024/01/23 05:39:39;;;;;;;99.93;94.70;;;;;;;;;;5068064;28;20481;-68
2024/01/23 05:42:06;;;;;;;115.43;109.40;;;;;;;;;;5067026;28;20501;-68
2024/01/23 05:44:34;;;;;;;111.03;105.35;;;;;;;;;;5071847;28;20510;-68
2024/01/23 05:47:02;;;;;;;105.38;99.80;;;;;;;;;;5066095;28;20549;-68
2024/01/23 05:49:29;;;;;;;113.47;107.60;;;;;;;;;;5062450;28;20431;-68
2024/01/23 05:51:56;;;;;;;118.68;111.55;;;;;;;;;;5073473;28;20891;-68
2024/01/23 05:54:24;;;;;;;105.80;100.20;;;;;;;;;;5075400;28;20430;-68
2024/01/23 05:56:51;;;;;;;106.60;100.93;;;;;;;;;;5075558;28;20551;-68
2024/01/23 05:59:21;;;;;;;114.05;107.05;;;;;;;;;;5076325;28;21021;-68
2024/01/23 06:01:51;;;;;;;112.80;106.95;;;;;;;;;;5067873;28;20427;-68
2024/01/23 06:04:18;;;;;;;118.55;111.82;;;;;;;;;;5065882;28;20434;-68
2024/01/23 06:06:46;;;;;;;108.53;102.93;;;;;;;;;;5057965;28;20483;-68
2024/01/23 06:09:13;;;;;;;102.93;97.28;;;;;;;;;;5075209;28;20435;-68
2024/01/23 06:11:41;;;;;;;120.25;113.95;;;;;;;;;;5060258;28;20467;-68
2024/01/23 06:14:08;;;;;;;111.90;106.05;;;;;;;;;;5063727;28;20435;-68
2024/01/23 06:16:40;;;;;;;121.32;114.97;;;;;;;;;;5067413;28;20463;-68
2024/01/23 06:19:08;;;;;;;121.20;115.00;;;;;;;;;;5068218;28;20459;-68
2024/01/23 06:21:36;;;;;;;106.57;101.05;;;;;;;;;;5067297;28;21143;-68
2024/01/23 06:24:03;;;;;;;89.07;84.28;;;;;;;;;;5069127;28;20428;-68
2024/01/23 06:26:32;;;;;;;109.72;104.05;;;;;;;;;;5072626;28;20428;-68
2024/01/23 06:28:59;;;;;;;100.53;95.23;;;;;;;;;;5078857;28;20908;-68
2024/01/23 06:31:30;;;;;;;89.22;84.53;;;;;;;;;;5078063;28;20516;-68
2024/01/23 06:33:57;;;;;;;82.18;77.82;;;;;;;;;;5063339;28;20864;-68
2024/01/23 06:36:24;;;;;;;83.75;79.15;;;;;;;;;;5069952;28;20481;-68
2024/01/23 06:38:52;;;;;;;92.72;87.80;;;;;;;;;;5067471;28;20466;-68
2024/01/23 06:41:19;;;;;;;90.17;85.33;;;;;;;;;;5070199;28;20880;-68
2024/01/23 06:43:46;;;;;;;108.97;103.28;;;;;;;;;;5072574;28;20435;-68
2024/01/23 06:46:14;;;;;;;101.43;95.97;;;;;;;;;;5068551;28;20465;-68
2024/01/23 06:48:44;;;;;;;103.40;98.10;;;;;;;;;;5065443;28;20855;-68
2024/01/23 06:51:14;;;;;;;92.50;87.63;;;;;;;;;;5058098;28;20515;-68
2024/01/23 06:53:42;;;;;;;87.03;82.20;;;;;;;;;;5056326;28;20435;-68
2024/01/23 06:56:09;;;;;;;80.80;76.43;;;;;;;;;;5056174;28;21170;-67
2024/01/23 06:58:36;;;;;;;100.13;94.73;;;;;;;;;;5063155;28;20428;-67
2024/01/23 07:01:04;;;;;;;80.80;76.40;;;;;;;;;;5057034;28;20537;-67
2024/01/23 07:03:31;;;;;;;119.57;113.38;;;;;;;;;;5058000;28;20495;-67
2024/01/23 07:05:58;;;;;;;125.40;118.53;;;;;;;;;;5056233;28;20442;-68
2024/01/23 07:08:26;;;;;;;61.03;57.55;;;;;;;;;;5058607;28;20921;-68
2024/01/23 07:10:53;;;;;;;71.18;66.88;;;;;;;;;;5063431;28;20804;-67
2024/01/23 07:13:22;;;;;;;61.60;57.95;;;;;;;;;;5062744;28;20917;-68
2024/01/23 07:15:49;;;;;;;54.95;51.80;;;;;;;;;;5062714;28;20510;-68
2024/01/23 07:18:16;;;;;;;55.40;52.13;;;;;;;;;;5056579;28;20989;-68
2024/01/23 07:20:43;;;;;;;57.28;54.03;;;;;;;;;;5055065;28;20471;-68
2024/01/23 07:23:11;;;;;;;52.03;48.90;;;;;;;;;;5066680;28;20425;-68
2024/01/23 07:25:38;;;;;;;58.47;54.90;;;;;;;;;;5069515;28;20436;-68
2024/01/23 07:28:07;;;;;;;53.80;50.47;;;;;;;;;;5062305;28;21345;-68
2024/01/23 07:30:51;;;;;;;57.58;54.17;;;;;;;;;;5054427;28;20452;-68
2024/01/23 07:33:19;;;;;;;57.78;54.38;;;;;;;;;;5064277;28;20433;-67
2024/01/23 07:35:46;;;;;;;58.55;54.97;;;;;;;;;;5070677;28;20826;-68
2024/01/23 07:38:13;;;;;;;54.67;51.70;;;;;;;;;;5061140;28;20841;-68
2024/01/23 07:40:41;;;;;;;53.85;50.58;;;;;;;;;;5060419;28;20431;-68
2024/01/23 07:43:08;;;;;;;51.83;48.97;;;;;;;;;;5062193;28;20423;-68
2024/01/23 07:45:35;;;;;;;58.30;54.95;;;;;;;;;;5062416;28;20443;-68
2024/01/23 07:48:03;;;;;;;55.30;52.00;;;;;;;;;;5060621;28;20439;-68
2024/01/23 07:50:30;;;;;;;56.75;53.28;;;;;;;;;;5064477;28;20434;-68
2024/01/23 07:53:00;;;;;;;67.43;63.38;;;;;;;;;;5067785;28;21262;-68
2024/01/23 07:55:27;;;;;;;67.20;63.15;;;;;;;;;;5064184;28;21356;-68
2024/01/23 07:57:55;;;;;;;62.58;58.92;;;;;;;;;;5073365;28;20423;-68
2024/01/23 08:00:22;;;;;;;63.90;60.13;;;;;;;;;;5065446;28;20427;-68
2024/01/23 08:02:52;;;;;;;71.88;67.72;;;;;;;;;;5068599;28;20434;-68
2024/01/23 08:05:19;;;;;;;71.82;67.60;;;;;;;;;;5067494;28;20956;-68
2024/01/23 08:07:48;;;;;;;77.20;73.05;;;;;;;;;;5071464;28;20419;-68
2024/01/23 08:10:21;;;;;;;130.27;123.68;;;;;;;;;;5067465;28;20423;-68
2024/01/23 08:12:48;;;;;;;141.38;134.27;;;;;;;;;;5060981;28;20427;-68
2024/01/23 08:15:15;;;;;;;142.43;135.23;;;;;;;;;;5064689;28;20526;-68
2024/01/23 08:17:42;;;;;;;100.65;95.07;;;;;;;;;;5068859;28;20423;-67
2024/01/23 08:20:10;;;;;;;83.75;78.85;;;;;;;;;;5065304;28;20508;-68
2024/01/23 08:22:37;;;;;;;86.28;81.20;;;;;;;;;;5065177;28;20466;-68
2024/01/23 08:25:05;;;;;;;83.03;78.20;;;;;;;;;;5068183;28;20432;-67
2024/01/23 08:27:32;;;;;;;90.13;85.10;;;;;;;;;;5071636;28;20883;-67
2024/01/23 08:30:02;;;;;;;85.75;80.82;;;;;;;;;;5063478;28;20446;-68
2024/01/23 08:32:30;;;;;;;78.75;74.10;;;;;;;;;;5068517;28;20442;-68
2024/01/23 08:34:57;;;;;;;77.07;72.63;;;;;;;;;;5066210;28;20430;-67
2024/01/23 08:37:25;;;;;;;89.20;84.13;;;;;;;;;;5071990;28;20544;-67
2024/01/23 08:39:53;;;;;;;94.07;88.68;;;;;;;;;;5070277;28;20431;-67
2024/01/23 08:42:21;;;;;;;85.05;80.03;;;;;;;;;;5076888;28;20790;-67
2024/01/23 08:44:50;;;;;;;93.20;88.18;;;;;;;;;;5048219;28;20427;-67
2024/01/23 08:47:17;;;;;;;80.60;76.07;;;;;;;;;;5067859;28;20432;-67
2024/01/23 08:49:44;;;;;;;83.60;78.97;;;;;;;;;;5057581;28;21071;-67
2024/01/23 08:52:15;;;;;;;76.30;72.03;;;;;;;;;;5061134;28;20825;-67
2024/01/23 08:54:45;;;;;;;71.38;67.13;;;;;;;;;;5066934;28;20438;-67
2024/01/23 08:57:13;;;;;;;79.70;74.95;;;;;;;;;;5064011;28;20423;-67
2024/01/23 08:59:41;;;;;;;76.07;71.50;;;;;;;;;;5063307;28;20431;-67
2024/01/23 09:02:09;;;;;;;79.13;74.50;;;;;;;;;;5063389;28;20514;-67
2024/01/23 09:04:36;;;;;;;85.53;80.63;;;;;;;;;;5062108;28;20427;-67
2024/01/23 09:07:03;;;;;;;85.32;80.28;;;;;;;;;;5074200;28;20466;-67
2024/01/23 09:09:30;;;;;;;81.18;74.97;;;;;;;;;;5063735;28;20928;-67
2024/01/23 09:11:58;;;;;;;81.70;76.93;;;;;;;;;;5059027;28;20480;-67
2024/01/23 09:14:25;;;;;;;85.18;80.32;;;;;;;;;;5066665;28;20424;-66
2024/01/23 09:16:52;;;;;;;80.00;75.43;;;;;;;;;;5066079;28;20431;-66
2024/01/23 09:19:19;;;;;;;91.78;86.70;;;;;;;;;;5068788;28;20421;-67
2024/01/23 09:21:46;;;;;;;91.18;86.13;;;;;;;;;;5073262;28;20793;-66
2024/01/23 09:24:15;;;;;;;89.93;84.82;;;;;;;;;;5070337;28;20497;-66
2024/01/23 09:26:42;;;;;;;94.18;88.90;;;;;;;;;;5067861;28;20478;-67
2024/01/23 09:29:09;;;;;;;92.10;86.57;;;;;;;;;;5065396;28;20432;-66
2024/01/23 09:31:46;;;;;;;87.07;82.07;;;;;;;;;;5060550;28;20477;-66
2024/01/23 09:34:14;;;;;;;90.13;84.93;;;;;;;;;;5063074;28;20424;-67
2024/01/23 09:36:42;;;;;;;82.13;77.32;;;;;;;;;;5065986;28;20519;-67
2024/01/23 09:39:13;;;;;;;94.03;88.47;;;;;;;;;;5068254;28;20789;-67
2024/01/23 09:41:47;;;;;;;88.07;82.97;;;;;;;;;;5068616;28;20506;-67
2024/01/23 09:44:15;;;;;;;80.53;75.88;;;;;;;;;;5062073;28;20431;-67
2024/01/23 09:46:45;;;;;;;72.78;68.57;;;;;;;;;;5072111;28;20432;-67
2024/01/23 09:49:12;;;;;;;80.38;75.72;;;;;;;;;;5064989;28;21008;-67
2024/01/23 09:51:42;;;;;;;83.97;78.95;;;;;;;;;;5070619;28;21148;-67
2024/01/23 09:54:12;;;;;;;79.97;75.43;;;;;;;;;;5096864;28;20480;-67
2024/01/23 09:56:40;;;;;;;76.28;71.85;;;;;;;;;;5066960;28;20440;-67
2024/01/23 09:59:09;;;;;;;79.63;74.90;;;;;;;;;;5065559;28;20427;-67
2024/01/23 10:01:37;;;;;;;80.40;75.65;;;;;;;;;;5065244;28;20431;-67
2024/01/23 10:04:05;;;;;;;91.32;86.07;;;;;;;;;;5064485;28;20454;-67
2024/01/23 10:06:33;;;;;;;84.53;79.65;;;;;;;;;;5074827;28;20439;-67
2024/01/23 10:09:06;;;;;;;96.80;91.35;;;;;;;;;;5057158;28;20502;-67
2024/01/23 10:11:35;;;;;;;108.10;102.03;;;;;;;;;;5070460;28;20433;-67
2024/01/23 10:14:02;;;;;;;116.60;110.45;;;;;;;;;;5074335;28;20458;-67
2024/01/23 10:16:30;;;;;;;102.53;96.75;;;;;;;;;;5069745;28;20428;-67
2024/01/23 10:18:58;;;;;;;81.88;77.22;;;;;;;;;;5071821;28;20459;-67
2024/01/23 10:21:25;;;;;;;85.75;80.82;;;;;;;;;;5070961;28;20435;-66
2024/01/23 10:23:53;;;;;;;85.10;80.28;;;;;;;;;;5079593;28;20444;-67
2024/01/23 10:26:20;;;;;;;90.72;85.53;;;;;;;;;;5064075;28;20435;-67
2024/01/23 10:28:48;;;;;;;86.75;81.78;;;;;;;;;;5069719;28;20437;-67
2024/01/23 10:31:16;;;;;;;85.37;80.40;;;;;;;;;;5069844;28;20437;-67
2024/01/23 10:33:43;;;;;;;80.47;75.85;;;;;;;;;;5073868;28;20427;-67
2024/01/23 10:36:12;;;;;;;80.32;75.65;;;;;;;;;;5076962;28;20436;-67
2024/01/23 10:38:39;;;;;;;88.93;83.85;;;;;;;;;;5079245;28;22217;-67
2024/01/23 10:41:07;;;;;;;76.83;72.37;;;;;;;;;;5085706;28;20429;-67
2024/01/23 10:43:35;;;;;;;84.05;79.10;;;;;;;;;;5082069;28;20437;-67
2024/01/23 10:46:03;;;;;;;78.55;74.03;;;;;;;;;;5074037;28;20435;-68
2024/01/23 10:48:33;;;;;;;84.20;79.40;;;;;;;;;;5051358;28;20431;-68
2024/01/23 10:51:16;;;;;;;83.95;78.53;;;;;;;;;;5092156;28;21132;-68
2024/01/23 10:53:57;;;;;;;90.95;85.70;;;;;;;;;;5061376;28;20454;-67
2024/01/23 10:56:24;;;;;;;96.70;91.15;;;;;;;;;;5063973;28;20425;-67
2024/01/23 10:58:58;;;;;;;89.85;84.57;;;;;;;;;;5059294;28;20433;-67
2024/01/23 11:01:25;;;;;;;89.35;83.85;;;;;;;;;;5064380;28;21060;-67
2024/01/23 11:03:53;;;;;;;98.13;92.47;;;;;;;;;;5070375;28;20459;-67
2024/01/23 11:06:22;;;;;;;82.07;77.40;;;;;;;;;;5072291;28;20547;-67
2024/01/23 11:08:52;;;;;;;88.65;83.30;;;;;;;;;;5063908;28;20518;-67
2024/01/23 11:11:37;;;;;;;89.90;84.57;;;;;;;;;;5060714;28;20902;-67
2024/01/23 11:14:12;;;;;;;108.57;102.37;;;;;;;;;;5070803;28;20431;-67
2024/01/23 11:17:01;;;;;;;81.82;76.93;;;;;;;;;;5066642;28;20432;-67
2024/01/23 11:19:34;;;;;;;107.75;101.78;;;;;;;;;;5070499;28;20908;-67
2024/01/23 11:22:04;;;;;;;106.65;100.80;;;;;;;;;;5062128;28;20510;-67
2024/01/23 11:24:38;;;;;;;124.90;117.57;;;;;;;;;;5065244;28;20435;-67
2024/01/23 11:27:06;;;;;;;129.98;122.90;;;;;;;;;;5062305;28;20933;-67
2024/01/23 11:29:34;;;;;;;109.93;103.68;;;;;;;;;;5075482;28;20432;-67
2024/01/23 11:32:15;;;;;;;101.28;95.63;;;;;;;;;;5047073;28;20510;-67
2024/01/23 11:34:46;;;;;;;120.63;114.10;;;;;;;;;;5061756;28;20425;-67
2024/01/23 11:37:29;;;;;;;115.78;109.53;;;;;;;;;;5061623;28;21093;-67
2024/01/23 11:39:58;;;;;;;89.47;84.30;;;;;;;;;;5068170;28;20546;-67
2024/01/23 11:42:41;;;;;;;101.65;96.28;;;;;;;;;;5063535;28;21213;-67
2024/01/23 11:45:25;;;;;;;100.95;95.07;;;;;;;;;;5066185;28;20872;-67
2024/01/23 11:47:56;;;;;;;96.93;91.77;;;;;;;;;;5062420;28;20927;-67
2024/01/23 11:50:24;;;;;;;96.90;91.30;;;;;;;;;;5065280;28;20435;-67
2024/01/23 11:52:52;;;;;;;100.88;95.43;;;;;;;;;;5055764;28;20429;-67
2024/01/23 11:55:20;;;;;;;137.35;130.25;;;;;;;;;;5060562;28;20440;-68
2024/01/23 11:57:51;;;;;;;105.78;99.78;;;;;;;;;;5058567;28;20432;-68
2024/01/23 12:00:19;;;;;;;125.88;119.43;;;;;;;;;;5067992;28;20893;-69
2024/01/23 12:02:47;;;;;;;114.00;107.93;;;;;;;;;;5061456;28;20437;-68
2024/01/23 12:05:14;;;;;;;132.30;125.37;;;;;;;;;;5065171;28;20604;-68
2024/01/23 12:07:42;;;;;;;150.52;142.35;;;;;;;;;;5067050;28;20434;-68
2024/01/23 12:10:15;;;;;;;145.18;137.60;;;;;;;;;;5079772;28;20458;-68
2024/01/23 12:12:42;;;;;;;116.20;110.17;;;;;;;;;;5058325;28;20427;-68
2024/01/23 12:15:12;;;;;;;97.03;91.83;;;;;;;;;;5063874;28;20433;-68
2024/01/23 12:17:47;;;;;;;87.40;82.50;;;;;;;;;;5056716;28;20780;-68
2024/01/23 12:20:14;;;;;;;106.80;101.10;;;;;;;;;;5049678;28;20479;-68
2024/01/23 12:22:42;;;;;;;109.40;103.65;;;;;;;;;;5059907;28;20436;-68
2024/01/23 12:25:10;;;;;;;118.57;112.38;;;;;;;;;;5061960;28;20461;-68
2024/01/23 12:27:38;;;;;;;102.78;97.13;;;;;;;;;;5062739;28;20443;-68
2024/01/23 12:30:15;;;;;;;105.65;99.97;;;;;;;;;;5049639;28;20442;-68
2024/01/23 12:32:49;;;;;;;124.15;117.82;;;;;;;;;;5060287;28;20452;-68
2024/01/23 12:35:20;;;;;;;100.95;95.55;;;;;;;;;;5068933;28;20425;-67
2024/01/23 12:37:47;;;;;;;109.10;103.47;;;;;;;;;;5064136;28;20980;-69
2024/01/23 12:40:14;;;;;;;106.25;100.80;;;;;;;;;;5061360;28;20440;-69
2024/01/23 12:42:43;;;;;;;104.20;98.80;;;;;;;;;;5055562;28;20425;-68
2024/01/23 12:45:12;;;;;;;110.22;104.57;;;;;;;;;;5061561;28;20435;-68
2024/01/23 12:47:41;;;;;;;103.97;98.43;;;;;;;;;;5061762;28;20434;-68
2024/01/23 12:50:16;;;;;;;109.90;104.28;;;;;;;;;;5064953;28;20435;-68
2024/01/23 12:52:44;;;;;;;116.75;109.63;;;;;;;;;;5053209;28;21151;-68
2024/01/23 12:55:13;;;;;;;113.40;107.55;;;;;;;;;;5066000;28;20435;-68
2024/01/23 12:57:41;;;;;;;97.90;92.38;;;;;;;;;;5061979;28;20429;-68
2024/01/23 13:00:09;;;;;;;103.13;97.80;;;;;;;;;;5063697;28;20442;-68
2024/01/23 13:02:36;;;;;;;84.60;79.95;;;;;;;;;;5073610;28;20432;-68
2024/01/23 13:05:03;;;;;;;88.15;82.97;;;;;;;;;;5067000;28;20435;-69
2024/01/23 13:07:36;;;;;;;86.60;81.57;;;;;;;;;;5070813;28;20905;-68
2024/01/23 13:10:04;;;;;;;91.80;86.72;;;;;;;;;;5063882;28;20442;-68
2024/01/23 13:12:35;;;;;;;82.75;77.90;;;;;;;;;;5076011;28;20935;-68
2024/01/23 13:15:03;;;;;;;86.07;81.03;;;;;;;;;;5062288;28;20463;-69
2024/01/23 13:17:30;;;;;;;83.90;79.10;;;;;;;;;;5072889;28;20456;-69
2024/01/23 13:20:04;;;;;;;85.38;80.65;;;;;;;;;;5056123;28;20535;-69
2024/01/23 13:22:31;;;;;;;95.18;90.05;;;;;;;;;;5061442;28;20459;-69
2024/01/23 13:24:59;;;;;;;85.80;81.07;;;;;;;;;;5058946;28;20452;-69
2024/01/23 13:27:27;;;;;;;73.93;69.63;;;;;;;;;;5066807;28;20435;-69
2024/01/23 13:29:55;;;;;;;85.20;80.40;;;;;;;;;;5073073;28;20459;-70
2024/01/23 13:32:24;;;;;;;97.38;92.00;;;;;;;;;;5072168;28;20929;-70
2024/01/23 13:34:51;;;;;;;97.57;91.93;;;;;;;;;;5067472;28;20767;-70
2024/01/23 13:37:18;;;;;;;92.70;87.67;;;;;;;;;;5059553;28;20429;-69
2024/01/23 13:39:47;;;;;;;102.03;96.25;;;;;;;;;;5065014;28;20482;-69
2024/01/23 13:42:15;;;;;;;101.93;96.35;;;;;;;;;;5059435;28;20471;-69
2024/01/23 13:44:43;;;;;;;104.25;97.82;;;;;;;;;;5066808;28;20939;-69
2024/01/23 13:47:10;;;;;;;102.78;97.10;;;;;;;;;;5063838;28;20528;-69
2024/01/23 13:49:53;;;;;;;116.07;109.90;;;;;;;;;;5046445;28;20435;-69
2024/01/23 13:52:20;;;;;;;88.63;83.57;;;;;;;;;;5063004;28;20469;-69
2024/01/23 13:54:50;;;;;;;114.20;108.07;;;;;;;;;;5059451;28;20954;-69
2024/01/23 13:57:18;;;;;;;102.25;96.68;;;;;;;;;;5059535;28;20527;-69
2024/01/23 13:59:45;;;;;;;91.75;86.53;;;;;;;;;;5056539;28;20427;-69
2024/01/23 14:02:15;;;;;;;104.07;98.15;;;;;;;;;;5057427;28;20493;-69
2024/01/23 14:04:42;;;;;;;101.93;96.32;;;;;;;;;;5063027;28;20427;-70
2024/01/23 14:07:09;;;;;;;94.88;89.57;;;;;;;;;;5069760;28;20431;-69
2024/01/23 14:09:36;;;;;;;92.53;87.43;;;;;;;;;;5063087;28;20427;-70
2024/01/23 14:12:04;;;;;;;79.82;75.22;;;;;;;;;;5070081;28;20429;-70
2024/01/23 14:14:34;;;;;;;99.82;94.53;;;;;;;;;;5061816;28;20428;-70